sensor_id;sensor_type;location;lat;lon;timestamp;pressure;altitude;pressure_sealevel;temperature;humidity
13612;BME280;6877;51.436;6.774;2023-02-01T00:01:41;101605.25;;;4.16;100.00
13612;BME280;6877;51.436;6.774;2023-02-01T00:04:13;101605.34;;;4.21;100.00
13612;BME280;6877;51.436;6.774;2023-02-01T00:06:39;101598.50;;;4.24;100.00
13612;BME280;6877;51.436;6.774;2023-02-01T00:09:06;101600.31;;;4.28;100.00
13612;BME280;6877;51.436;6.774;2023-02-01T00:11:33;101596.84;;;4.28;99.58
13612;BME280;6877;51.436;6.774;2023-02-01T00:13:59;101597.59;;;4.22;99.47
13612;BME280;6877;51.436;6.774;2023-02-01T00:16:28;101585.56;;;4.24;99.23
13612;BME280;6877;51.436;6.774;2023-02-01T00:19:03;101585.69;;;4.30;98.05
13612;BME280;6877;51.436;6.774;2023-02-01T00:21:30;101600.44;;;4.33;97.79
13612;BME280;6877;51.436;6.774;2023-02-01T00:24:02;101604.81;;;4.35;97.66
13612;BME280;6877;51.436;6.774;2023-02-01T00:26:34;101592.69;;;4.34;97.20
13612;BME280;6877;51.436;6.774;2023-02-01T00:29:11;101585.75;;;4.33;96.63
13612;BME280;6877;51.436;6.774;2023-02-01T00:31:43;101576.31;;;4.35;97.07
13612;BME280;6877;51.436;6.774;2023-02-01T00:34:16;101571.19;;;4.38;97.07
13612;BME280;6877;51.436;6.774;2023-02-01T00:36:47;101568.66;;;4.41;96.22
13612;BME280;6877;51.436;6.774;2023-02-01T00:39:19;101560.88;;;4.41;96.61
13612;BME280;6877;51.436;6.774;2023-02-01T00:41:45;101559.09;;;4.40;96.32
13612;BME280;6877;51.436;6.774;2023-02-01T00:44:11;101545.28;;;4.38;96.26
13612;BME280;6877;51.436;6.774;2023-02-01T00:46:43;101531.28;;;4.32;96.73
13612;BME280;6877;51.436;6.774;2023-02-01T00:49:14;101535.47;;;4.25;97.45
13612;BME280;6877;51.436;6.774;2023-02-01T00:51:46;101537.13;;;4.20;97.82
13612;BME280;6877;51.436;6.774;2023-02-01T00:54:17;101530.22;;;4.21;98.00
13612;BME280;6877;51.436;6.774;2023-02-01T00:56:43;101533.75;;;4.24;98.77
13612;BME280;6877;51.436;6.774;2023-02-01T00:59:12;101542.56;;;4.34;98.81
13612;BME280;6877;51.436;6.774;2023-02-01T01:01:39;101547.97;;;4.45;98.87
13612;BME280;6877;51.436;6.774;2023-02-01T01:04:10;101561.00;;;4.48;99.24
13612;BME280;6877;51.436;6.774;2023-02-01T01:06:37;101562.88;;;4.56;98.96
13612;BME280;6877;51.436;6.774;2023-02-01T01:09:05;101563.03;;;4.64;98.38
13612;BME280;6877;51.436;6.774;2023-02-01T01:11:37;101559.63;;;4.67;98.48
13612;BME280;6877;51.436;6.774;2023-02-01T01:14:10;101559.66;;;4.70;98.10
13612;BME280;6877;51.436;6.774;2023-02-01T01:16:36;101564.88;;;4.71;98.12
13612;BME280;6877;51.436;6.774;2023-02-01T01:19:03;101566.63;;;4.72;97.90
13612;BME280;6877;51.436;6.774;2023-02-01T01:21:30;101563.16;;;4.70;98.20
13612;BME280;6877;51.436;6.774;2023-02-01T01:23:57;101562.28;;;4.71;97.70
13612;BME280;6877;51.436;6.774;2023-02-01T01:26:26;101556.19;;;4.68;98.20
13612;BME280;6877;51.436;6.774;2023-02-01T01:28:58;101569.03;;;4.63;98.34
13612;BME280;6877;51.436;6.774;2023-02-01T01:31:33;101564.69;;;4.60;98.16
13612;BME280;6877;51.436;6.774;2023-02-01T01:34:01;101561.13;;;4.55;98.37
13612;BME280;6877;51.436;6.774;2023-02-01T01:36:32;101559.34;;;4.51;98.61
13612;BME280;6877;51.436;6.774;2023-02-01T01:38:59;101569.66;;;4.48;98.28
13612;BME280;6877;51.436;6.774;2023-02-01T01:41:30;101565.28;;;4.46;98.27
13612;BME280;6877;51.436;6.774;2023-02-01T01:44:03;101566.06;;;4.43;98.37
13612;BME280;6877;51.436;6.774;2023-02-01T01:46:31;101547.91;;;4.41;98.21
13612;BME280;6877;51.436;6.774;2023-02-01T01:49:09;101549.59;;;4.39;97.75
13612;BME280;6877;51.436;6.774;2023-02-01T01:51:57;101538.38;;;4.40;97.66
13612;BME280;6877;51.436;6.774;2023-02-01T01:54:33;101543.50;;;4.37;97.93
13612;BME280;6877;51.436;6.774;2023-02-01T01:57:08;101540.91;;;4.37;97.08
13612;BME280;6877;51.436;6.774;2023-02-01T01:59:37;101536.53;;;4.33;96.52
13612;BME280;6877;51.436;6.774;2023-02-01T02:02:06;101537.38;;;4.34;95.61
13612;BME280;6877;51.436;6.774;2023-02-01T02:04:33;101542.63;;;4.35;95.41
13612;BME280;6877;51.436;6.774;2023-02-01T02:07:06;101535.59;;;4.31;95.45
13612;BME280;6877;51.436;6.774;2023-02-01T02:09:34;101537.25;;;4.26;95.01
13612;BME280;6877;51.436;6.774;2023-02-01T02:12:01;101533.69;;;4.21;94.79
13612;BME280;6877;51.436;6.774;2023-02-01T02:14:33;101537.88;;;4.14;94.92
13612;BME280;6877;51.436;6.774;2023-02-01T02:31:23;101534.63;;;3.82;95.08
13612;BME280;6877;51.436;6.774;2023-02-01T02:34:20;101539.81;;;3.84;94.47
13612;BME280;6877;51.436;6.774;2023-02-01T02:39:51;101523.28;;;3.77;93.58
13612;BME280;6877;51.436;6.774;2023-02-01T02:42:51;101513.63;;;3.70;93.86
13612;BME280;6877;51.436;6.774;2023-02-01T02:49:11;101508.97;;;3.54;94.41
13612;BME280;6877;51.436;6.774;2023-02-01T02:51:50;101509.72;;;3.49;94.58
13612;BME280;6877;51.436;6.774;2023-02-01T02:54:41;101517.34;;;3.43;94.47
13612;BME280;6877;51.436;6.774;2023-02-01T02:57:19;101511.47;;;3.51;94.07
13612;BME280;6877;51.436;6.774;2023-02-01T03:00:09;101524.56;;;3.57;93.71
13612;BME280;6877;51.436;6.774;2023-02-01T03:03:00;101521.91;;;3.55;93.63
13612;BME280;6877;51.436;6.774;2023-02-01T03:05:47;101507.34;;;3.59;93.29
13612;BME280;6877;51.436;6.774;2023-02-01T03:08:24;101505.59;;;3.58;93.67
13612;BME280;6877;51.436;6.774;2023-02-01T03:11:03;101503.81;;;3.55;93.74
13612;BME280;6877;51.436;6.774;2023-02-01T03:13:48;101499.44;;;3.53;93.72
13612;BME280;6877;51.436;6.774;2023-02-01T03:16:33;101497.59;;;3.47;94.19
13612;BME280;6877;51.436;6.774;2023-02-01T03:21:55;101477.31;;;3.67;94.15
13612;BME280;6877;51.436;6.774;2023-02-01T03:24:37;101463.72;;;3.77;93.77
13612;BME280;6877;51.436;6.774;2023-02-01T03:27:18;101466.63;;;3.91;93.00
13612;BME280;6877;51.436;6.774;2023-02-01T03:30:17;101467.53;;;3.94;93.24
13612;BME280;6877;51.436;6.774;2023-02-01T03:32:48;101475.38;;;3.99;93.17
13612;BME280;6877;51.436;6.774;2023-02-01T03:41:03;101469.47;;;4.05;93.08
13612;BME280;6877;51.436;6.774;2023-02-01T03:43:39;101458.25;;;4.06;93.20
13612;BME280;6877;51.436;6.774;2023-02-01T03:46:19;101458.31;;;4.07;92.84
13612;BME280;6877;51.436;6.774;2023-02-01T03:48:52;101454.03;;;4.11;93.08
13612;BME280;6877;51.436;6.774;2023-02-01T03:51:21;101449.81;;;4.16;92.71
13612;BME280;6877;51.436;6.774;2023-02-01T03:53:50;101446.41;;;4.17;92.49
13612;BME280;6877;51.436;6.774;2023-02-01T03:56:24;101444.66;;;4.17;92.24
13612;BME280;6877;51.436;6.774;2023-02-01T03:58:53;101441.22;;;4.17;92.67
13612;BME280;6877;51.436;6.774;2023-02-01T04:01:31;101432.56;;;4.16;92.79
13612;BME280;6877;51.436;6.774;2023-02-01T04:04:02;101431.66;;;4.16;92.94
13612;BME280;6877;51.436;6.774;2023-02-01T04:06:29;101429.06;;;4.14;92.87
13612;BME280;6877;51.436;6.774;2023-02-01T04:08:55;101438.50;;;4.11;92.94
13612;BME280;6877;51.436;6.774;2023-02-01T04:11:21;101424.59;;;4.06;93.54
13612;BME280;6877;51.436;6.774;2023-02-01T04:13:53;101426.94;;;3.93;93.87
13612;BME280;6877;51.436;6.774;2023-02-01T04:16:19;101437.09;;;3.84;94.60
13612;BME280;6877;51.436;6.774;2023-02-01T04:18:46;101430.94;;;3.78;94.82
13612;BME280;6877;51.436;6.774;2023-02-01T04:21:12;101440.34;;;3.74;94.92
13612;BME280;6877;51.436;6.774;2023-02-01T04:23:43;101444.59;;;3.69;95.24
13612;BME280;6877;51.436;6.774;2023-02-01T04:26:10;101447.94;;;3.65;95.58
13612;BME280;6877;51.436;6.774;2023-02-01T04:28:41;101461.63;;;3.59;95.96
13612;BME280;6877;51.436;6.774;2023-02-01T04:31:17;101464.25;;;3.62;96.13
13612;BME280;6877;51.436;6.774;2023-02-01T04:33:43;101454.22;;;3.76;95.68
13612;BME280;6877;51.436;6.774;2023-02-01T04:36:15;101448.25;;;3.80;95.41
13612;BME280;6877;51.436;6.774;2023-02-01T04:38:46;101460.41;;;3.83;95.44
13612;BME280;6877;51.436;6.774;2023-02-01T04:41:13;101457.00;;;3.85;95.23
13612;BME280;6877;51.436;6.774;2023-02-01T04:43:39;101447.75;;;3.98;95.18
13612;BME280;6877;51.436;6.774;2023-02-01T04:46:11;101453.94;;;4.05;94.37
13612;BME280;6877;51.436;6.774;2023-02-01T04:48:42;101451.34;;;4.05;94.76
13612;BME280;6877;51.436;6.774;2023-02-01T04:51:09;101456.56;;;4.08;94.63
13612;BME280;6877;51.436;6.774;2023-02-01T04:53:41;101448.88;;;4.11;94.38
13612;BME280;6877;51.436;6.774;2023-02-01T04:56:12;101456.53;;;4.06;94.69
13612;BME280;6877;51.436;6.774;2023-02-01T04:58:38;101453.00;;;4.01;94.82
13612;BME280;6877;51.436;6.774;2023-02-01T05:01:10;101455.59;;;4.03;94.31
13612;BME280;6877;51.436;6.774;2023-02-01T05:03:36;101455.41;;;3.93;94.55
13612;BME280;6877;51.436;6.774;2023-02-01T05:06:07;101458.72;;;3.86;95.50
13612;BME280;6877;51.436;6.774;2023-02-01T05:08:34;101461.31;;;3.85;95.34
13612;BME280;6877;51.436;6.774;2023-02-01T05:11:00;101459.47;;;3.79;95.54
13612;BME280;6877;51.436;6.774;2023-02-01T05:13:30;101458.41;;;3.71;95.82
13612;BME280;6877;51.436;6.774;2023-02-01T05:16:19;101452.44;;;3.74;95.75
13612;BME280;6877;51.436;6.774;2023-02-01T05:18:45;101453.19;;;3.68;95.79
13612;BME280;6877;51.436;6.774;2023-02-01T05:21:17;101451.38;;;3.65;96.12
13612;BME280;6877;51.436;6.774;2023-02-01T05:23:43;101459.84;;;3.57;96.76
13612;BME280;6877;51.436;6.774;2023-02-01T05:26:30;101455.44;;;3.53;96.86
13612;BME280;6877;51.436;6.774;2023-02-01T05:29:02;101466.78;;;3.59;96.81
13612;BME280;6877;51.436;6.774;2023-02-01T05:31:29;101464.91;;;3.52;96.90
13612;BME280;6877;51.436;6.774;2023-02-01T05:33:55;101452.72;;;3.46;97.12
13612;BME280;6877;51.436;6.774;2023-02-01T05:36:22;101438.84;;;3.43;97.45
13612;BME280;6877;51.436;6.774;2023-02-01T05:38:53;101457.03;;;3.46;97.58
13612;BME280;6877;51.436;6.774;2023-02-01T05:41:25;101455.22;;;3.43;97.61
13612;BME280;6877;51.436;6.774;2023-02-01T05:43:51;101456.88;;;3.38;97.86
13612;BME280;6877;51.436;6.774;2023-02-01T05:46:23;101455.94;;;3.36;98.20
13612;BME280;6877;51.436;6.774;2023-02-01T05:48:49;101455.16;;;3.39;98.11
13612;BME280;6877;51.436;6.774;2023-02-01T05:51:20;101444.00;;;3.41;97.98
13612;BME280;6877;51.436;6.774;2023-02-01T05:53:52;101438.03;;;3.44;97.96
13612;BME280;6877;51.436;6.774;2023-02-01T05:56:18;101429.28;;;3.39;98.18
13612;BME280;6877;51.436;6.774;2023-02-01T05:58:45;101440.28;;;3.30;98.64
13612;BME280;6877;51.436;6.774;2023-02-01T06:01:11;101444.50;;;3.25;98.92
13612;BME280;6877;51.436;6.774;2023-02-01T06:03:43;101438.41;;;3.23;99.25
13612;BME280;6877;51.436;6.774;2023-02-01T06:06:09;101442.13;;;3.34;99.50
13612;BME280;6877;51.436;6.774;2023-02-01T06:08:40;101433.13;;;3.58;98.46
13612;BME280;6877;51.436;6.774;2023-02-01T06:11:07;101446.25;;;3.67;97.78
13612;BME280;6877;51.436;6.774;2023-02-01T06:13:34;101443.00;;;3.77;96.93
13612;BME280;6877;51.436;6.774;2023-02-01T06:16:02;101441.47;;;3.85;96.85
13612;BME280;6877;51.436;6.774;2023-02-01T06:18:34;101438.16;;;3.92;96.61
13612;BME280;6877;51.436;6.774;2023-02-01T06:21:01;101458.25;;;4.04;95.69
13612;BME280;6877;51.436;6.774;2023-02-01T06:23:29;101445.31;;;4.06;95.43
13612;BME280;6877;51.436;6.774;2023-02-01T06:26:06;101467.94;;;4.14;94.70
13612;BME280;6877;51.436;6.774;2023-02-01T06:28:35;101454.13;;;4.15;94.56
13612;BME280;6877;51.436;6.774;2023-02-01T06:31:07;101458.44;;;4.15;95.04
13612;BME280;6877;51.436;6.774;2023-02-01T06:33:34;101462.81;;;4.19;94.66
13612;BME280;6877;51.436;6.774;2023-02-01T06:36:02;101458.59;;;4.23;94.48
13612;BME280;6877;51.436;6.774;2023-02-01T06:38:30;101456.06;;;4.27;94.18
13612;BME280;6877;51.436;6.774;2023-02-01T06:40:57;101464.75;;;4.29;93.82
13612;BME280;6877;51.436;6.774;2023-02-01T06:43:25;101456.19;;;4.33;93.45
13612;BME280;6877;51.436;6.774;2023-02-01T06:45:52;101465.84;;;4.42;92.73
13612;BME280;6877;51.436;6.774;2023-02-01T06:48:19;101468.47;;;4.44;92.85
13612;BME280;6877;51.436;6.774;2023-02-01T06:50:45;101457.28;;;4.45;92.79
13612;BME280;6877;51.436;6.774;2023-02-01T06:53:12;101465.13;;;4.49;92.39
13612;BME280;6877;51.436;6.774;2023-02-01T06:56:03;101456.47;;;4.49;92.42
13612;BME280;6877;51.436;6.774;2023-02-01T06:58:35;101465.13;;;4.51;92.55
13612;BME280;6877;51.436;6.774;2023-02-01T07:01:08;101461.75;;;4.55;92.03
13612;BME280;6877;51.436;6.774;2023-02-01T07:03:35;101473.00;;;4.57;92.23
13612;BME280;6877;51.436;6.774;2023-02-01T07:06:02;101471.31;;;4.57;92.40
13612;BME280;6877;51.436;6.774;2023-02-01T07:08:37;101466.06;;;4.54;92.21
13612;BME280;6877;51.436;6.774;2023-02-01T07:11:07;101474.78;;;4.59;92.09
13612;BME280;6877;51.436;6.774;2023-02-01T07:13:35;101470.56;;;4.64;91.82
13612;BME280;6877;51.436;6.774;2023-02-01T07:16:03;101482.69;;;4.65;92.08
13612;BME280;6877;51.436;6.774;2023-02-01T07:18:30;101470.59;;;4.66;91.51
13612;BME280;6877;51.436;6.774;2023-02-01T07:20:57;101482.78;;;4.70;91.54
13612;BME280;6877;51.436;6.774;2023-02-01T07:23:25;101481.91;;;4.71;92.04
13612;BME280;6877;51.436;6.774;2023-02-01T07:26:02;101476.69;;;4.70;92.19
13612;BME280;6877;51.436;6.774;2023-02-01T07:28:35;101477.53;;;4.69;92.44
13612;BME280;6877;51.436;6.774;2023-02-01T07:31:17;101481.94;;;4.73;92.28
13612;BME280;6877;51.436;6.774;2023-02-01T07:33:52;101461.28;;;4.77;91.87
13612;BME280;6877;51.436;6.774;2023-02-01T07:36:19;101480.34;;;4.79;91.84
13612;BME280;6877;51.436;6.774;2023-02-01T07:38:46;101483.03;;;4.85;91.23
13612;BME280;6877;51.436;6.774;2023-02-01T07:41:15;101493.41;;;4.87;91.28
13612;BME280;6877;51.436;6.774;2023-02-01T07:43:42;101487.31;;;4.85;91.63
13612;BME280;6877;51.436;6.774;2023-02-01T07:46:09;101483.06;;;4.88;91.61
13612;BME280;6877;51.436;6.774;2023-02-01T07:48:41;101480.50;;;4.90;91.46
13612;BME280;6877;51.436;6.774;2023-02-01T07:51:10;101475.38;;;4.95;91.15
13612;BME280;6877;51.436;6.774;2023-02-01T07:53:42;101496.13;;;4.95;91.40
13612;BME280;6877;51.436;6.774;2023-02-01T07:56:15;101489.25;;;4.97;91.15
13612;BME280;6877;51.436;6.774;2023-02-01T07:58:42;101488.41;;;4.98;90.85
13612;BME280;6877;51.436;6.774;2023-02-01T08:01:23;101503.13;;;4.99;90.95
13612;BME280;6877;51.436;6.774;2023-02-01T08:04:00;101493.63;;;5.01;91.15
13612;BME280;6877;51.436;6.774;2023-02-01T08:06:33;101512.66;;;5.00;91.12
13612;BME280;6877;51.436;6.774;2023-02-01T08:09:03;101508.34;;;5.00;91.33
13612;BME280;6877;51.436;6.774;2023-02-01T08:11:31;101503.19;;;5.03;91.01
13612;BME280;6877;51.436;6.774;2023-02-01T08:13:58;101493.63;;;5.01;91.07
13612;BME280;6877;51.436;6.774;2023-02-01T08:16:25;101507.56;;;5.06;91.26
13612;BME280;6877;51.436;6.774;2023-02-01T08:18:52;101511.00;;;5.05;91.50
13612;BME280;6877;51.436;6.774;2023-02-01T08:21:26;101517.13;;;5.08;90.74
13612;BME280;6877;51.436;6.774;2023-02-01T08:24:08;101515.41;;;5.09;90.72
13612;BME280;6877;51.436;6.774;2023-02-01T08:26:36;101516.31;;;5.11;90.66
13612;BME280;6877;51.436;6.774;2023-02-01T08:29:04;101518.03;;;5.12;90.25
13612;BME280;6877;51.436;6.774;2023-02-01T08:31:30;101509.34;;;5.08;90.73
13612;BME280;6877;51.436;6.774;2023-02-01T08:34:02;101513.66;;;5.08;90.89
13612;BME280;6877;51.436;6.774;2023-02-01T08:36:32;101516.31;;;5.13;90.79
13612;BME280;6877;51.436;6.774;2023-02-01T08:38:59;101523.28;;;5.15;90.62
13612;BME280;6877;51.436;6.774;2023-02-01T08:41:29;101524.19;;;5.17;90.23
13612;BME280;6877;51.436;6.774;2023-02-01T08:44:00;101525.16;;;5.25;89.78
13612;BME280;6877;51.436;6.774;2023-02-01T08:46:27;101525.31;;;5.34;89.26
13612;BME280;6877;51.436;6.774;2023-02-01T08:48:56;101534.06;;;5.40;89.33
13612;BME280;6877;51.436;6.774;2023-02-01T08:51:23;101534.16;;;5.47;88.98
13612;BME280;6877;51.436;6.774;2023-02-01T08:53:55;101532.66;;;5.62;88.56
13612;BME280;6877;51.436;6.774;2023-02-01T08:56:22;101537.03;;;5.67;88.07
13612;BME280;6877;51.436;6.774;2023-02-01T08:58:49;101530.13;;;5.68;87.71
13612;BME280;6877;51.436;6.774;2023-02-01T09:01:20;101540.53;;;5.68;87.81
13612;BME280;6877;51.436;6.774;2023-02-01T09:03:46;101526.69;;;5.70;87.36
13612;BME280;6877;51.436;6.774;2023-02-01T09:06:14;101533.56;;;5.65;87.33
13612;BME280;6877;51.436;6.774;2023-02-01T09:08:42;101517.91;;;5.61;87.83
13612;BME280;6877;51.436;6.774;2023-02-01T09:11:16;101521.25;;;5.52;87.77
13612;BME280;6877;51.436;6.774;2023-02-01T09:13:48;101511.69;;;5.51;88.18
13612;BME280;6877;51.436;6.774;2023-02-01T09:16:20;101514.25;;;5.48;88.01
13612;BME280;6877;51.436;6.774;2023-02-01T09:18:46;101501.28;;;5.48;88.11
13612;BME280;6877;51.436;6.774;2023-02-01T09:21:12;101513.41;;;5.49;88.02
13612;BME280;6877;51.436;6.774;2023-02-01T09:23:39;101508.16;;;5.44;87.95
13612;BME280;6877;51.436;6.774;2023-02-01T09:26:05;101513.38;;;5.46;87.73
13612;BME280;6877;51.436;6.774;2023-02-01T09:28:33;101503.91;;;5.51;88.07
13612;BME280;6877;51.436;6.774;2023-02-01T09:31:00;101513.53;;;5.56;87.84
13612;BME280;6877;51.436;6.774;2023-02-01T09:33:43;101508.50;;;5.69;87.22
13612;BME280;6877;51.436;6.774;2023-02-01T09:36:09;101501.69;;;5.78;86.63
13612;BME280;6877;51.436;6.774;2023-02-01T09:38:36;101492.34;;;5.90;86.38
13612;BME280;6877;51.436;6.774;2023-02-01T09:41:10;101500.25;;;5.96;85.86
13612;BME280;6877;51.436;6.774;2023-02-01T09:43:55;101496.94;;;6.09;84.98
13612;BME280;6877;51.436;6.774;2023-02-01T09:46:29;101508.34;;;6.22;84.96
13612;BME280;6877;51.436;6.774;2023-02-01T09:49:01;101488.44;;;6.25;84.44
13612;BME280;6877;51.436;6.774;2023-02-01T09:51:33;101497.16;;;6.29;84.62
13612;BME280;6877;51.436;6.774;2023-02-01T09:54:17;101487.66;;;6.33;84.01
13612;BME280;6877;51.436;6.774;2023-02-01T09:56:53;101505.16;;;6.49;83.19
13612;BME280;6877;51.436;6.774;2023-02-01T09:59:36;101494.81;;;6.55;82.41
13612;BME280;6877;51.436;6.774;2023-02-01T10:02:18;101486.22;;;6.64;82.56
13612;BME280;6877;51.436;6.774;2023-02-01T10:04:54;101497.56;;;6.70;82.26
13612;BME280;6877;51.436;6.774;2023-02-01T10:10:41;101488.16;;;6.85;81.50
13612;BME280;6877;51.436;6.774;2023-02-01T10:13:29;101502.44;;;7.36;80.33
13612;BME280;6877;51.436;6.774;2023-02-01T10:24:20;101460.81;;;7.47;77.93
13612;BME280;6877;51.436;6.774;2023-02-01T10:26:59;101487.72;;;7.41;78.64
13612;BME280;6877;51.436;6.774;2023-02-01T10:29:42;101482.44;;;7.33;78.53
13612;BME280;6877;51.436;6.774;2023-02-01T10:32:35;101486.56;;;7.05;78.88
13612;BME280;6877;51.436;6.774;2023-02-01T10:35:13;101488.22;;;6.91;80.15
13612;BME280;6877;51.436;6.774;2023-02-01T10:37:44;101490.72;;;6.79;80.19
13612;BME280;6877;51.436;6.774;2023-02-01T10:40:24;101489.78;;;6.72;81.24
13612;BME280;6877;51.436;6.774;2023-02-01T10:42:59;101499.25;;;6.62;81.31
13612;BME280;6877;51.436;6.774;2023-02-01T10:45:30;101487.00;;;6.55;81.72
13612;BME280;6877;51.436;6.774;2023-02-01T10:47:58;101502.66;;;6.57;81.50
13612;BME280;6877;51.436;6.774;2023-02-01T10:50:38;101489.72;;;6.66;81.64
13612;BME280;6877;51.436;6.774;2023-02-01T10:53:29;101488.16;;;6.85;81.17
13612;BME280;6877;51.436;6.774;2023-02-01T10:56:08;101483.88;;;6.93;80.53
13612;BME280;6877;51.436;6.774;2023-02-01T10:58:42;101483.00;;;6.91;81.17
13612;BME280;6877;51.436;6.774;2023-02-01T11:01:33;101487.31;;;6.84;80.77
13612;BME280;6877;51.436;6.774;2023-02-01T11:04:02;101478.56;;;6.81;80.75
13612;BME280;6877;51.436;6.774;2023-02-01T11:06:39;101476.16;;;7.02;80.54
13612;BME280;6877;51.436;6.774;2023-02-01T11:17:00;101453.81;;;7.32;78.21
13612;BME280;6877;51.436;6.774;2023-02-01T11:19:27;101464.97;;;7.18;78.34
13612;BME280;6877;51.436;6.774;2023-02-01T11:21:57;101464.94;;;7.09;78.83
13612;BME280;6877;51.436;6.774;2023-02-01T11:26:57;101451.00;;;7.01;79.62
13612;BME280;6877;51.436;6.774;2023-02-01T11:29:34;101441.47;;;7.05;78.96
13612;BME280;6877;51.436;6.774;2023-02-01T11:32:03;101437.97;;;7.01;79.28
13612;BME280;6877;51.436;6.774;2023-02-01T11:34:42;101421.47;;;6.99;79.42
13612;BME280;6877;51.436;6.774;2023-02-01T11:37:18;101418.97;;;7.13;79.88
13612;BME280;6877;51.436;6.774;2023-02-01T11:40:02;101424.19;;;7.14;79.92
13612;BME280;6877;51.436;6.774;2023-02-01T11:42:34;101425.91;;;7.14;80.32
13612;BME280;6877;51.436;6.774;2023-02-01T11:47:45;101419.59;;;6.80;84.63
13612;BME280;6877;51.436;6.774;2023-02-01T11:50:19;101424.63;;;6.57;85.07
13612;BME280;6877;51.436;6.774;2023-02-01T12:07:03;101401.50;;;5.99;91.96
13612;BME280;6877;51.436;6.774;2023-02-01T12:12:43;101398.94;;;6.00;91.20
13612;BME280;6877;51.436;6.774;2023-02-01T12:15:25;101392.03;;;5.99;90.33
13612;BME280;6877;51.436;6.774;2023-02-01T12:37:46;101371.56;;;6.35;84.74
13612;BME280;6877;51.436;6.774;2023-02-01T12:40:36;101369.91;;;6.44;83.03
13612;BME280;6877;51.436;6.774;2023-02-01T12:43:16;101376.06;;;6.53;82.62
13612;BME280;6877;51.436;6.774;2023-02-01T12:45:57;101359.63;;;6.57;83.19
13612;BME280;6877;51.436;6.774;2023-02-01T12:48:41;101364.84;;;6.60;81.95
13612;BME280;6877;51.436;6.774;2023-02-01T12:51:36;101381.34;;;6.63;82.54
13612;BME280;6877;51.436;6.774;2023-02-01T12:54:19;101369.22;;;6.65;81.60
13612;BME280;6877;51.436;6.774;2023-02-01T12:56:56;101363.97;;;6.61;82.39
13612;BME280;6877;51.436;6.774;2023-02-01T12:59:42;101370.91;;;6.62;82.54
13612;BME280;6877;51.436;6.774;2023-02-01T13:05:04;101365.75;;;6.66;82.17
13612;BME280;6877;51.436;6.774;2023-02-01T13:07:53;101365.69;;;6.62;82.35
13612;BME280;6877;51.436;6.774;2023-02-01T13:18:21;101361.13;;;6.33;85.68
13612;BME280;6877;51.436;6.774;2023-02-01T13:21:08;101363.75;;;6.35;85.03
13612;BME280;6877;51.436;6.774;2023-02-01T13:23:38;101367.22;;;6.35;85.62
13612;BME280;6877;51.436;6.774;2023-02-01T13:26:11;101363.81;;;6.41;85.60
13612;BME280;6877;51.436;6.774;2023-02-01T13:28:46;101356.06;;;6.48;85.25
13612;BME280;6877;51.436;6.774;2023-02-01T13:31:52;101364.81;;;6.57;83.32
13612;BME280;6877;51.436;6.774;2023-02-01T13:43:30;101356.31;;;6.79;81.90
13612;BME280;6877;51.436;6.774;2023-02-01T13:46:05;101344.19;;;6.86;81.11
13612;BME280;6877;51.436;6.774;2023-02-01T13:48:49;101347.72;;;6.95;80.75
13612;BME280;6877;51.436;6.774;2023-02-01T13:51:41;101364.19;;;6.96;79.65
13612;BME280;6877;51.436;6.774;2023-02-01T13:56:56;101344.28;;;7.01;79.42
13612;BME280;6877;51.436;6.774;2023-02-01T14:13:31;101367.81;;;7.19;79.06
13612;BME280;6877;51.436;6.774;2023-02-01T14:26:23;101372.16;;;7.19;78.57
13612;BME280;6877;51.436;6.774;2023-02-01T14:28:55;101359.16;;;7.27;78.42
13612;BME280;6877;51.436;6.774;2023-02-01T14:31:37;101373.94;;;7.26;78.05
13612;BME280;6877;51.436;6.774;2023-02-01T14:34:14;101373.09;;;7.32;78.05
13612;BME280;6877;51.436;6.774;2023-02-01T14:36:50;101378.34;;;7.38;78.33
13612;BME280;6877;51.436;6.774;2023-02-01T14:39:30;101369.63;;;7.36;78.03
13612;BME280;6877;51.436;6.774;2023-02-01T14:44:55;101384.34;;;7.29;78.15
13612;BME280;6877;51.436;6.774;2023-02-01T14:47:29;101382.63;;;7.25;77.98
13612;BME280;6877;51.436;6.774;2023-02-01T14:50:03;101378.25;;;7.23;78.38
13612;BME280;6877;51.436;6.774;2023-02-01T14:52:45;101379.97;;;7.20;79.07
13612;BME280;6877;51.436;6.774;2023-02-01T14:55:21;101382.56;;;7.16;79.39
13612;BME280;6877;51.436;6.774;2023-02-01T14:57:53;101379.94;;;7.14;78.90
13612;BME280;6877;51.436;6.774;2023-02-01T15:00:23;101397.25;;;7.12;79.50
13612;BME280;6877;51.436;6.774;2023-02-01T15:02:51;101392.06;;;7.14;78.90
13612;BME280;6877;51.436;6.774;2023-02-01T15:05:31;101391.22;;;7.13;79.21
13612;BME280;6877;51.436;6.774;2023-02-01T15:08:13;101393.81;;;7.13;79.09
13612;BME280;6877;51.436;6.774;2023-02-01T15:10:45;101385.13;;;7.14;79.00
13612;BME280;6877;51.436;6.774;2023-02-01T15:13:24;101375.59;;;7.15;78.99
13612;BME280;6877;51.436;6.774;2023-02-01T15:18:32;101396.47;;;7.19;78.48
13612;BME280;6877;51.436;6.774;2023-02-01T15:21:05;101398.22;;;7.22;79.46
13612;BME280;6877;51.436;6.774;2023-02-01T15:23:36;101392.97;;;7.17;79.01
13612;BME280;6877;51.436;6.774;2023-02-01T15:26:08;101382.53;;;7.14;79.89
13612;BME280;6877;51.436;6.774;2023-02-01T15:28:34;101391.22;;;7.15;79.47
13612;BME280;6877;51.436;6.774;2023-02-01T15:31:04;101390.31;;;7.11;79.41
13612;BME280;6877;51.436;6.774;2023-02-01T15:33:36;101386.00;;;7.13;79.16
13612;BME280;6877;51.436;6.774;2023-02-01T15:41:19;101378.19;;;7.12;79.22
13612;BME280;6877;51.436;6.774;2023-02-01T15:43:49;101386.84;;;7.06;79.76
13612;BME280;6877;51.436;6.774;2023-02-01T15:46:35;101391.13;;;7.01;79.66
13612;BME280;6877;51.436;6.774;2023-02-01T15:49:03;101393.75;;;7.01;79.80
13612;BME280;6877;51.436;6.774;2023-02-01T15:51:31;101403.28;;;7.02;79.60
13612;BME280;6877;51.436;6.774;2023-02-01T15:54:04;101404.16;;;7.04;79.61
13612;BME280;6877;51.436;6.774;2023-02-01T15:56:37;101398.09;;;7.05;79.88
13612;BME280;6877;51.436;6.774;2023-02-01T15:59:25;101389.41;;;7.05;79.67
13612;BME280;6877;51.436;6.774;2023-02-01T16:01:55;101374.69;;;7.04;79.85
13612;BME280;6877;51.436;6.774;2023-02-01T16:04:26;101403.28;;;7.02;80.23
13612;BME280;6877;51.436;6.774;2023-02-01T16:07:03;101405.84;;;6.99;80.55
13612;BME280;6877;51.436;6.774;2023-02-01T16:09:54;101398.91;;;6.96;80.56